sensor_id;sensor_type;location;lat;lon;timestamp;P1;durP1;ratioP1;P2;durP2;ratioP2
19867;SDS011;10096;51.112;6.776;2022-10-30T00:01:42;11.10;;;7.22;;
19867;SDS011;10096;51.112;6.776;2022-10-30T00:04:10;9.02;;;6.53;;
19867;SDS011;10096;51.112;6.776;2022-10-30T00:06:37;11.48;;;6.88;;
19867;SDS011;10096;51.112;6.776;2022-10-30T00:09:06;11.60;;;6.90;;
19867;SDS011;10096;51.112;6.776;2022-10-30T00:11:33;11.23;;;6.80;;
19867;SDS011;10096;51.112;6.776;2022-10-30T00:14:01;12.57;;;7.35;;
19867;SDS011;10096;51.112;6.776;2022-10-30T00:16:29;9.95;;;6.97;;
19867;SDS011;10096;51.112;6.776;2022-10-30T00:18:57;8.50;;;6.90;;
19867;SDS011;10096;51.112;6.776;2022-10-30T00:21:24;8.60;;;6.72;;
19867;SDS011;10096;51.112;6.776;2022-10-30T00:23:51;13.13;;;6.72;;
19867;SDS011;10096;51.112;6.776;2022-10-30T00:26:19;13.35;;;7.18;;
19867;SDS011;10096;51.112;6.776;2022-10-30T00:28:49;11.70;;;7.40;;
19867;SDS011;10096;51.112;6.776;2022-10-30T00:31:16;10.23;;;7.72;;
19867;SDS011;10096;51.112;6.776;2022-10-30T00:33:44;13.13;;;7.35;;
19867;SDS011;10096;51.112;6.776;2022-10-30T00:36:16;14.60;;;7.35;;
19867;SDS011;10096;51.112;6.776;2022-10-30T00:38:45;11.93;;;7.15;;
19867;SDS011;10096;51.112;6.776;2022-10-30T00:41:13;10.35;;;7.68;;
19867;SDS011;10096;51.112;6.776;2022-10-30T00:43:40;14.48;;;7.68;;
19867;SDS011;10096;51.112;6.776;2022-10-30T00:46:11;10.65;;;7.50;;
19867;SDS011;10096;51.112;6.776;2022-10-30T00:48:42;14.20;;;7.22;;
19867;SDS011;10096;51.112;6.776;2022-10-30T00:51:13;12.63;;;7.13;;
19867;SDS011;10096;51.112;6.776;2022-10-30T00:53:41;12.13;;;7.50;;
19867;SDS011;10096;51.112;6.776;2022-10-30T00:56:08;14.80;;;7.43;;
19867;SDS011;10096;51.112;6.776;2022-10-30T00:58:37;10.43;;;6.97;;
19867;SDS011;10096;51.112;6.776;2022-10-30T01:01:08;15.52;;;7.25;;
19867;SDS011;10096;51.112;6.776;2022-10-30T01:03:40;11.68;;;7.60;;
19867;SDS011;10096;51.112;6.776;2022-10-30T01:06:09;10.77;;;7.60;;
19867;SDS011;10096;51.112;6.776;2022-10-30T01:08:40;11.90;;;7.88;;
19867;SDS011;10096;51.112;6.776;2022-10-30T01:11:08;11.95;;;7.95;;
19867;SDS011;10096;51.112;6.776;2022-10-30T01:13:35;16.33;;;8.20;;
19867;SDS011;10096;51.112;6.776;2022-10-30T01:16:08;11.77;;;7.82;;
19867;SDS011;10096;51.112;6.776;2022-10-30T01:18:51;12.63;;;8.40;;
19867;SDS011;10096;51.112;6.776;2022-10-30T01:21:30;12.50;;;7.85;;
19867;SDS011;10096;51.112;6.776;2022-10-30T01:24:13;10.38;;;7.68;;
19867;SDS011;10096;51.112;6.776;2022-10-30T01:26:59;12.10;;;8.05;;
19867;SDS011;10096;51.112;6.776;2022-10-30T01:29:41;10.88;;;8.07;;
19867;SDS011;10096;51.112;6.776;2022-10-30T01:32:24;13.27;;;7.95;;
19867;SDS011;10096;51.112;6.776;2022-10-30T01:35:03;11.30;;;7.78;;
19867;SDS011;10096;51.112;6.776;2022-10-30T01:37:37;13.02;;;7.90;;
19867;SDS011;10096;51.112;6.776;2022-10-30T01:40:11;13.82;;;8.77;;
19867;SDS011;10096;51.112;6.776;2022-10-30T01:42:43;9.68;;;7.85;;
19867;SDS011;10096;51.112;6.776;2022-10-30T01:45:14;10.60;;;7.68;;
19867;SDS011;10096;51.112;6.776;2022-10-30T01:47:47;11.07;;;8.05;;
19867;SDS011;10096;51.112;6.776;2022-10-30T01:50:29;9.80;;;7.78;;
19867;SDS011;10096;51.112;6.776;2022-10-30T01:53:08;10.15;;;8.25;;
19867;SDS011;10096;51.112;6.776;2022-10-30T01:55:45;14.30;;;8.35;;
19867;SDS011;10096;51.112;6.776;2022-10-30T01:58:21;11.98;;;7.72;;
19867;SDS011;10096;51.112;6.776;2022-10-30T02:00:53;15.32;;;8.27;;
19867;SDS011;10096;51.112;6.776;2022-10-30T02:03:25;14.25;;;8.45;;
19867;SDS011;10096;51.112;6.776;2022-10-30T02:05:53;11.18;;;8.13;;
19867;SDS011;10096;51.112;6.776;2022-10-30T02:08:22;12.35;;;8.20;;
19867;SDS011;10096;51.112;6.776;2022-10-30T02:10:50;12.57;;;7.53;;
19867;SDS011;10096;51.112;6.776;2022-10-30T02:13:19;13.63;;;8.02;;
19867;SDS011;10096;51.112;6.776;2022-10-30T02:15:46;14.27;;;8.07;;
19867;SDS011;10096;51.112;6.776;2022-10-30T02:18:15;12.70;;;8.48;;
19867;SDS011;10096;51.112;6.776;2022-10-30T02:20:43;13.10;;;8.52;;
19867;SDS011;10096;51.112;6.776;2022-10-30T02:23:16;11.90;;;8.25;;
19867;SDS011;10096;51.112;6.776;2022-10-30T02:25:44;12.80;;;9.52;;
19867;SDS011;10096;51.112;6.776;2022-10-30T02:28:16;12.75;;;8.77;;
19867;SDS011;10096;51.112;6.776;2022-10-30T02:30:44;13.50;;;8.05;;
19867;SDS011;10096;51.112;6.776;2022-10-30T02:33:11;11.82;;;8.38;;
19867;SDS011;10096;51.112;6.776;2022-10-30T02:35:38;12.45;;;8.18;;
19867;SDS011;10096;51.112;6.776;2022-10-30T02:38:07;17.08;;;9.05;;
19867;SDS011;10096;51.112;6.776;2022-10-30T02:40:36;9.77;;;8.10;;
19867;SDS011;10096;51.112;6.776;2022-10-30T02:43:03;11.27;;;8.25;;
19867;SDS011;10096;51.112;6.776;2022-10-30T02:45:31;12.00;;;8.45;;
19867;SDS011;10096;51.112;6.776;2022-10-30T02:47:58;12.80;;;8.57;;
19867;SDS011;10096;51.112;6.776;2022-10-30T02:50:28;16.58;;;9.05;;
19867;SDS011;10096;51.112;6.776;2022-10-30T02:52:55;11.32;;;8.60;;
19867;SDS011;10096;51.112;6.776;2022-10-30T02:55:26;13.32;;;8.15;;
19867;SDS011;10096;51.112;6.776;2022-10-30T02:57:53;13.68;;;9.35;;
19867;SDS011;10096;51.112;6.776;2022-10-30T03:00:20;12.35;;;8.63;;
19867;SDS011;10096;51.112;6.776;2022-10-30T03:02:47;14.23;;;9.02;;
19867;SDS011;10096;51.112;6.776;2022-10-30T03:05:14;13.07;;;8.85;;
19867;SDS011;10096;51.112;6.776;2022-10-30T03:07:44;9.85;;;8.50;;
19867;SDS011;10096;51.112;6.776;2022-10-30T03:10:12;12.70;;;9.15;;
19867;SDS011;10096;51.112;6.776;2022-10-30T03:12:42;12.68;;;8.25;;
19867;SDS011;10096;51.112;6.776;2022-10-30T03:15:17;12.27;;;8.48;;
19867;SDS011;10096;51.112;6.776;2022-10-30T03:17:44;10.73;;;8.50;;
19867;SDS011;10096;51.112;6.776;2022-10-30T03:20:14;12.65;;;8.55;;
19867;SDS011;10096;51.112;6.776;2022-10-30T03:22:41;14.75;;;9.00;;
19867;SDS011;10096;51.112;6.776;2022-10-30T03:25:08;11.35;;;8.20;;
19867;SDS011;10096;51.112;6.776;2022-10-30T03:27:35;13.63;;;8.57;;
19867;SDS011;10096;51.112;6.776;2022-10-30T03:30:05;12.00;;;8.75;;
19867;SDS011;10096;51.112;6.776;2022-10-30T03:32:33;10.50;;;8.95;;
19867;SDS011;10096;51.112;6.776;2022-10-30T03:35:01;13.20;;;9.02;;
19867;SDS011;10096;51.112;6.776;2022-10-30T03:37:37;10.80;;;8.18;;
19867;SDS011;10096;51.112;6.776;2022-10-30T03:40:07;13.07;;;8.60;;
19867;SDS011;10096;51.112;6.776;2022-10-30T03:42:38;9.18;;;7.85;;
19867;SDS011;10096;51.112;6.776;2022-10-30T03:45:08;14.45;;;9.15;;
19867;SDS011;10096;51.112;6.776;2022-10-30T03:47:38;11.85;;;8.80;;
19867;SDS011;10096;51.112;6.776;2022-10-30T03:50:06;9.82;;;7.85;;
19867;SDS011;10096;51.112;6.776;2022-10-30T03:52:36;12.63;;;8.25;;
19867;SDS011;10096;51.112;6.776;2022-10-30T03:55:04;11.00;;;8.23;;
19867;SDS011;10096;51.112;6.776;2022-10-30T03:57:34;12.75;;;8.43;;
19867;SDS011;10096;51.112;6.776;2022-10-30T04:00:02;11.50;;;8.63;;
19867;SDS011;10096;51.112;6.776;2022-10-30T04:02:31;14.35;;;8.52;;
19867;SDS011;10096;51.112;6.776;2022-10-30T04:04:58;8.75;;;7.70;;
19867;SDS011;10096;51.112;6.776;2022-10-30T04:07:25;11.15;;;8.88;;
19867;SDS011;10096;51.112;6.776;2022-10-30T04:09:53;14.38;;;9.57;;
19867;SDS011;10096;51.112;6.776;2022-10-30T04:12:20;13.95;;;8.50;;
19867;SDS011;10096;51.112;6.776;2022-10-30T04:14:49;12.80;;;8.27;;
19867;SDS011;10096;51.112;6.776;2022-10-30T04:17:19;11.35;;;9.02;;
19867;SDS011;10096;51.112;6.776;2022-10-30T04:19:48;14.63;;;9.05;;
19867;SDS011;10096;51.112;6.776;2022-10-30T04:22:15;12.60;;;8.70;;
19867;SDS011;10096;51.112;6.776;2022-10-30T04:24:44;12.18;;;8.32;;
19867;SDS011;10096;51.112;6.776;2022-10-30T04:27:13;14.10;;;8.77;;
19867;SDS011;10096;51.112;6.776;2022-10-30T04:29:40;13.20;;;8.88;;
19867;SDS011;10096;51.112;6.776;2022-10-30T04:32:07;14.52;;;9.10;;
19867;SDS011;10096;51.112;6.776;2022-10-30T04:34:36;13.20;;;9.05;;
19867;SDS011;10096;51.112;6.776;2022-10-30T04:37:10;13.50;;;8.93;;
19867;SDS011;10096;51.112;6.776;2022-10-30T04:39:37;10.82;;;8.98;;
19867;SDS011;10096;51.112;6.776;2022-10-30T04:42:04;13.60;;;8.75;;
19867;SDS011;10096;51.112;6.776;2022-10-30T04:44:34;11.45;;;8.60;;
19867;SDS011;10096;51.112;6.776;2022-10-30T04:47:01;13.48;;;9.27;;
19867;SDS011;10096;51.112;6.776;2022-10-30T04:49:28;13.93;;;9.25;;
19867;SDS011;10096;51.112;6.776;2022-10-30T04:51:55;11.45;;;9.20;;
19867;SDS011;10096;51.112;6.776;2022-10-30T04:54:27;12.90;;;9.00;;
19867;SDS011;10096;51.112;6.776;2022-10-30T04:57:00;10.32;;;8.90;;
19867;SDS011;10096;51.112;6.776;2022-10-30T04:59:28;11.57;;;8.38;;
19867;SDS011;10096;51.112;6.776;2022-10-30T05:01:57;13.43;;;8.88;;
19867;SDS011;10096;51.112;6.776;2022-10-30T05:04:24;13.88;;;8.55;;
19867;SDS011;10096;51.112;6.776;2022-10-30T05:06:52;11.05;;;8.38;;
19867;SDS011;10096;51.112;6.776;2022-10-30T05:09:19;14.77;;;8.82;;
19867;SDS011;10096;51.112;6.776;2022-10-30T05:11:47;13.38;;;8.77;;
19867;SDS011;10096;51.112;6.776;2022-10-30T05:14:14;12.82;;;8.95;;
19867;SDS011;10096;51.112;6.776;2022-10-30T05:16:41;16.80;;;8.95;;
19867;SDS011;10096;51.112;6.776;2022-10-30T05:19:08;14.43;;;8.88;;
19867;SDS011;10096;51.112;6.776;2022-10-30T05:21:36;14.73;;;9.30;;
19867;SDS011;10096;51.112;6.776;2022-10-30T05:24:07;12.82;;;8.45;;
19867;SDS011;10096;51.112;6.776;2022-10-30T05:26:34;12.98;;;8.38;;
19867;SDS011;10096;51.112;6.776;2022-10-30T05:29:03;11.57;;;8.25;;
19867;SDS011;10096;51.112;6.776;2022-10-30T05:31:30;14.10;;;8.63;;
19867;SDS011;10096;51.112;6.776;2022-10-30T05:34:08;12.20;;;8.57;;
19867;SDS011;10096;51.112;6.776;2022-10-30T05:36:35;12.20;;;8.02;;
19867;SDS011;10096;51.112;6.776;2022-10-30T05:39:02;17.17;;;8.68;;
19867;SDS011;10096;51.112;6.776;2022-10-30T05:41:29;17.90;;;8.35;;
19867;SDS011;10096;51.112;6.776;2022-10-30T05:43:57;12.82;;;8.23;;
19867;SDS011;10096;51.112;6.776;2022-10-30T05:46:25;13.23;;;8.57;;
19867;SDS011;10096;51.112;6.776;2022-10-30T05:48:54;12.40;;;8.50;;
19867;SDS011;10096;51.112;6.776;2022-10-30T05:51:24;16.42;;;8.88;;
19867;SDS011;10096;51.112;6.776;2022-10-30T05:53:54;10.70;;;7.80;;
19867;SDS011;10096;51.112;6.776;2022-10-30T05:56:22;10.73;;;8.05;;
19867;SDS011;10096;51.112;6.776;2022-10-30T05:58:57;12.15;;;8.52;;
19867;SDS011;10096;51.112;6.776;2022-10-30T06:01:26;14.60;;;9.05;;
19867;SDS011;10096;51.112;6.776;2022-10-30T06:03:53;11.88;;;8.48;;
19867;SDS011;10096;51.112;6.776;2022-10-30T06:06:28;12.88;;;8.25;;
19867;SDS011;10096;51.112;6.776;2022-10-30T06:08:56;10.50;;;7.97;;
19867;SDS011;10096;51.112;6.776;2022-10-30T06:11:27;13.52;;;9.02;;
19867;SDS011;10096;51.112;6.776;2022-10-30T06:14:06;12.07;;;8.73;;
19867;SDS011;10096;51.112;6.776;2022-10-30T06:16:36;16.02;;;8.73;;
19867;SDS011;10096;51.112;6.776;2022-10-30T06:19:03;13.93;;;8.80;;
19867;SDS011;10096;51.112;6.776;2022-10-30T06:21:31;11.43;;;8.15;;
19867;SDS011;10096;51.112;6.776;2022-10-30T06:23:58;12.45;;;8.43;;
19867;SDS011;10096;51.112;6.776;2022-10-30T06:26:28;14.40;;;9.52;;
19867;SDS011;10096;51.112;6.776;2022-10-30T06:29:02;14.48;;;9.45;;
19867;SDS011;10096;51.112;6.776;2022-10-30T06:31:30;12.77;;;8.43;;
19867;SDS011;10096;51.112;6.776;2022-10-30T06:33:58;15.93;;;9.48;;
19867;SDS011;10096;51.112;6.776;2022-10-30T06:36:26;13.10;;;8.55;;
19867;SDS011;10096;51.112;6.776;2022-10-30T06:38:56;14.73;;;8.40;;
19867;SDS011;10096;51.112;6.776;2022-10-30T06:41:33;15.02;;;8.95;;
19867;SDS011;10096;51.112;6.776;2022-10-30T06:46:51;12.80;;;8.35;;
19867;SDS011;10096;51.112;6.776;2022-10-30T06:49:20;13.57;;;8.55;;
19867;SDS011;10096;51.112;6.776;2022-10-30T06:51:47;13.73;;;9.85;;
19867;SDS011;10096;51.112;6.776;2022-10-30T06:54:20;13.52;;;9.13;;
19867;SDS011;10096;51.112;6.776;2022-10-30T06:56:48;12.95;;;8.88;;
19867;SDS011;10096;51.112;6.776;2022-10-30T06:59:16;12.13;;;8.88;;
19867;SDS011;10096;51.112;6.776;2022-10-30T07:01:44;14.30;;;13.02;;
19867;SDS011;10096;51.112;6.776;2022-10-30T07:04:11;11.77;;;8.27;;
19867;SDS011;10096;51.112;6.776;2022-10-30T07:06:43;14.40;;;8.45;;
19867;SDS011;10096;51.112;6.776;2022-10-30T07:09:10;11.18;;;8.07;;
19867;SDS011;10096;51.112;6.776;2022-10-30T07:11:51;10.50;;;8.13;;
19867;SDS011;10096;51.112;6.776;2022-10-30T07:14:20;10.18;;;7.80;;
19867;SDS011;10096;51.112;6.776;2022-10-30T07:16:47;8.90;;;7.30;;
19867;SDS011;10096;51.112;6.776;2022-10-30T07:19:18;10.65;;;7.50;;
19867;SDS011;10096;51.112;6.776;2022-10-30T07:21:49;10.75;;;7.47;;
19867;SDS011;10096;51.112;6.776;2022-10-30T07:24:17;13.30;;;7.82;;
19867;SDS011;10096;51.112;6.776;2022-10-30T07:26:44;9.10;;;7.50;;
19867;SDS011;10096;51.112;6.776;2022-10-30T07:29:11;11.90;;;7.35;;
19867;SDS011;10096;51.112;6.776;2022-10-30T07:31:40;13.23;;;8.18;;
19867;SDS011;10096;51.112;6.776;2022-10-30T07:34:09;13.77;;;8.43;;
19867;SDS011;10096;51.112;6.776;2022-10-30T07:36:36;11.13;;;8.18;;
19867;SDS011;10096;51.112;6.776;2022-10-30T07:39:07;16.15;;;7.75;;
19867;SDS011;10096;51.112;6.776;2022-10-30T07:41:34;10.77;;;8.90;;
19867;SDS011;10096;51.112;6.776;2022-10-30T07:44:02;13.40;;;8.63;;
19867;SDS011;10096;51.112;6.776;2022-10-30T07:46:29;10.90;;;8.63;;
19867;SDS011;10096;51.112;6.776;2022-10-30T07:48:56;11.48;;;8.05;;
19867;SDS011;10096;51.112;6.776;2022-10-30T07:51:23;13.30;;;8.23;;
19867;SDS011;10096;51.112;6.776;2022-10-30T07:53:50;12.35;;;8.43;;
19867;SDS011;10096;51.112;6.776;2022-10-30T07:56:20;10.98;;;8.25;;
19867;SDS011;10096;51.112;6.776;2022-10-30T07:58:50;12.52;;;8.25;;
19867;SDS011;10096;51.112;6.776;2022-10-30T08:01:17;15.05;;;8.82;;
19867;SDS011;10096;51.112;6.776;2022-10-30T08:03:44;11.85;;;8.40;;
19867;SDS011;10096;51.112;6.776;2022-10-30T08:06:17;12.88;;;8.05;;
19867;SDS011;10096;51.112;6.776;2022-10-30T08:08:45;13.43;;;7.53;;
19867;SDS011;10096;51.112;6.776;2022-10-30T08:11:17;11.02;;;8.20;;
19867;SDS011;10096;51.112;6.776;2022-10-30T08:16:43;14.10;;;8.07;;
19867;SDS011;10096;51.112;6.776;2022-10-30T08:19:10;11.85;;;8.32;;
19867;SDS011;10096;51.112;6.776;2022-10-30T08:21:37;12.23;;;8.30;;
19867;SDS011;10096;51.112;6.776;2022-10-30T08:24:06;11.93;;;8.95;;
19867;SDS011;10096;51.112;6.776;2022-10-30T08:26:34;11.32;;;7.68;;
19867;SDS011;10096;51.112;6.776;2022-10-30T08:29:01;12.70;;;7.57;;
19867;SDS011;10096;51.112;6.776;2022-10-30T08:31:36;12.07;;;6.88;;
19867;SDS011;10096;51.112;6.776;2022-10-30T08:34:04;10.90;;;6.68;;
19867;SDS011;10096;51.112;6.776;2022-10-30T08:36:34;14.52;;;7.47;;
19867;SDS011;10096;51.112;6.776;2022-10-30T08:39:07;10.43;;;7.03;;
19867;SDS011;10096;51.112;6.776;2022-10-30T08:41:35;10.95;;;7.25;;
19867;SDS011;10096;51.112;6.776;2022-10-30T08:44:02;18.08;;;7.82;;
19867;SDS011;10096;51.112;6.776;2022-10-30T08:46:30;10.45;;;7.65;;
19867;SDS011;10096;51.112;6.776;2022-10-30T08:48:58;12.18;;;7.85;;
19867;SDS011;10096;51.112;6.776;2022-10-30T08:51:25;11.95;;;8.35;;
19867;SDS011;10096;51.112;6.776;2022-10-30T08:53:53;13.88;;;8.23;;
19867;SDS011;10096;51.112;6.776;2022-10-30T08:56:27;10.65;;;7.60;;
19867;SDS011;10096;51.112;6.776;2022-10-30T08:58:54;13.10;;;7.35;;
19867;SDS011;10096;51.112;6.776;2022-10-30T09:01:24;11.32;;;7.70;;
19867;SDS011;10096;51.112;6.776;2022-10-30T09:03:52;14.18;;;7.63;;
19867;SDS011;10096;51.112;6.776;2022-10-30T09:06:21;13.65;;;7.25;;
19867;SDS011;10096;51.112;6.776;2022-10-30T09:08:48;13.00;;;8.60;;
19867;SDS011;10096;51.112;6.776;2022-10-30T09:11:16;10.65;;;7.22;;
19867;SDS011;10096;51.112;6.776;2022-10-30T09:13:43;14.55;;;8.07;;
19867;SDS011;10096;51.112;6.776;2022-10-30T09:16:10;12.60;;;6.45;;
19867;SDS011;10096;51.112;6.776;2022-10-30T09:18:41;10.15;;;7.47;;
19867;SDS011;10096;51.112;6.776;2022-10-30T09:21:08;8.98;;;7.10;;
19867;SDS011;10096;51.112;6.776;2022-10-30T09:23:37;13.35;;;7.63;;
19867;SDS011;10096;51.112;6.776;2022-10-30T09:26:05;13.52;;;7.03;;
19867;SDS011;10096;51.112;6.776;2022-10-30T09:28:37;11.20;;;8.25;;
19867;SDS011;10096;51.112;6.776;2022-10-30T09:31:04;13.32;;;7.25;;
19867;SDS011;10096;51.112;6.776;2022-10-30T09:33:31;10.60;;;7.18;;
19867;SDS011;10096;51.112;6.776;2022-10-30T09:35:59;10.30;;;6.70;;
19867;SDS011;10096;51.112;6.776;2022-10-30T09:38:26;10.43;;;7.18;;
19867;SDS011;10096;51.112;6.776;2022-10-30T09:41:05;10.57;;;7.50;;
19867;SDS011;10096;51.112;6.776;2022-10-30T09:43:54;13.10;;;7.75;;
19867;SDS011;10096;51.112;6.776;2022-10-30T09:46:35;10.23;;;7.32;;
19867;SDS011;10096;51.112;6.776;2022-10-30T09:49:29;14.23;;;7.10;;
19867;SDS011;10096;51.112;6.776;2022-10-30T09:52:24;10.32;;;7.28;;
19867;SDS011;10096;51.112;6.776;2022-10-30T09:55:03;11.70;;;8.20;;
19867;SDS011;10096;51.112;6.776;2022-10-30T09:57:43;9.00;;;6.47;;
19867;SDS011;10096;51.112;6.776;2022-10-30T10:00:19;10.75;;;7.00;;
19867;SDS011;10096;51.112;6.776;2022-10-30T10:02:55;9.77;;;6.80;;
19867;SDS011;10096;51.112;6.776;2022-10-30T10:05:33;13.15;;;6.90;;
19867;SDS011;10096;51.112;6.776;2022-10-30T10:08:33;8.95;;;6.75;;
19867;SDS011;10096;51.112;6.776;2022-10-30T10:11:09;9.45;;;7.63;;
19867;SDS011;10096;51.112;6.776;2022-10-30T10:13:44;10.38;;;7.75;;
19867;SDS011;10096;51.112;6.776;2022-10-30T10:16:16;12.10;;;7.40;;
19867;SDS011;10096;51.112;6.776;2022-10-30T10:18:54;9.10;;;6.55;;
19867;SDS011;10096;51.112;6.776;2022-10-30T10:21:26;9.75;;;6.47;;
19867;SDS011;10096;51.112;6.776;2022-10-30T10:23:55;11.70;;;7.13;;
19867;SDS011;10096;51.112;6.776;2022-10-30T10:26:32;11.30;;;6.57;;
19867;SDS011;10096;51.112;6.776;2022-10-30T10:32:32;12.05;;;7.13;;
19867;SDS011;10096;51.112;6.776;2022-10-30T10:38:10;9.75;;;5.78;;
19867;SDS011;10096;51.112;6.776;2022-10-30T10:40:48;11.02;;;7.32;;
19867;SDS011;10096;51.112;6.776;2022-10-30T10:43:40;10.20;;;5.75;;
19867;SDS011;10096;51.112;6.776;2022-10-30T10:46:39;10.93;;;6.65;;
19867;SDS011;10096;51.112;6.776;2022-10-30T10:49:27;14.32;;;6.65;;
19867;SDS011;10096;51.112;6.776;2022-10-30T10:52:09;10.32;;;6.90;;
19867;SDS011;10096;51.112;6.776;2022-10-30T10:54:40;12.35;;;7.22;;
19867;SDS011;10096;51.112;6.776;2022-10-30T10:57:12;11.52;;;6.60;;
19867;SDS011;10096;51.112;6.776;2022-10-30T10:59:52;13.00;;;6.90;;
19867;SDS011;10096;51.112;6.776;2022-10-30T11:02:28;12.40;;;6.47;;
19867;SDS011;10096;51.112;6.776;2022-10-30T11:05:03;12.40;;;6.63;;
19867;SDS011;10096;51.112;6.776;2022-10-30T11:07:36;9.95;;;6.22;;
19867;SDS011;10096;51.112;6.776;2022-10-30T11:10:11;9.93;;;6.68;;
19867;SDS011;10096;51.112;6.776;2022-10-30T11:12:44;11.63;;;6.63;;
19867;SDS011;10096;51.112;6.776;2022-10-30T11:15:21;12.20;;;6.43;;
19867;SDS011;10096;51.112;6.776;2022-10-30T11:18:04;11.30;;;6.03;;
19867;SDS011;10096;51.112;6.776;2022-10-30T11:20:39;11.10;;;6.68;;
19867;SDS011;10096;51.112;6.776;2022-10-30T11:23:29;8.75;;;6.15;;
19867;SDS011;10096;51.112;6.776;2022-10-30T11:26:03;9.85;;;6.50;;
19867;SDS011;10096;51.112;6.776;2022-10-30T11:29:03;10.68;;;6.55;;
19867;SDS011;10096;51.112;6.776;2022-10-30T11:31:32;13.38;;;6.40;;
19867;SDS011;10096;51.112;6.776;2022-10-30T11:34:34;9.27;;;6.35;;
19867;SDS011;10096;51.112;6.776;2022-10-30T11:37:03;10.38;;;6.20;;
19867;SDS011;10096;51.112;6.776;2022-10-30T11:39:32;8.63;;;5.75;;
19867;SDS011;10096;51.112;6.776;2022-10-30T11:42:05;9.40;;;6.15;;
19867;SDS011;10096;51.112;6.776;2022-10-30T11:44:40;9.85;;;6.80;;
19867;SDS011;10096;51.112;6.776;2022-10-30T11:47:09;10.10;;;6.10;;
19867;SDS011;10096;51.112;6.776;2022-10-30T11:49:41;14.52;;;6.40;;
19867;SDS011;10096;51.112;6.776;2022-10-30T11:52:14;11.63;;;5.85;;
19867;SDS011;10096;51.112;6.776;2022-10-30T11:54:49;8.50;;;6.03;;
19867;SDS011;10096;51.112;6.776;2022-10-30T11:57:22;9.07;;;5.70;;
19867;SDS011;10096;51.112;6.776;2022-10-30T11:59:53;11.50;;;7.47;;
19867;SDS011;10096;51.112;6.776;2022-10-30T12:02:23;11.57;;;6.65;;
19867;SDS011;10096;51.112;6.776;2022-10-30T12:04:54;11.80;;;7.53;;
19867;SDS011;10096;51.112;6.776;2022-10-30T12:07:29;12.57;;;6.40;;
19867;SDS011;10096;51.112;6.776;2022-10-30T12:09:57;10.68;;;6.88;;
19867;SDS011;10096;51.112;6.776;2022-10-30T12:12:26;10.07;;;6.50;;
19867;SDS011;10096;51.112;6.776;2022-10-30T12:14:57;9.07;;;5.68;;
19867;SDS011;10096;51.112;6.776;2022-10-30T12:17:34;14.35;;;7.03;;
19867;SDS011;10096;51.112;6.776;2022-10-30T12:20:03;13.95;;;6.97;;
19867;SDS011;10096;51.112;6.776;2022-10-30T12:22:34;11.68;;;6.50;;
19867;SDS011;10096;51.112;6.776;2022-10-30T12:25:02;10.52;;;6.82;;
19867;SDS011;10096;51.112;6.776;2022-10-30T12:27:35;10.65;;;6.68;;
19867;SDS011;10096;51.112;6.776;2022-10-30T12:30:06;9.10;;;6.30;;
19867;SDS011;10096;51.112;6.776;2022-10-30T12:32:44;10.25;;;6.10;;
19867;SDS011;10096;51.112;6.776;2022-10-30T12:35:38;10.18;;;6.10;;
19867;SDS011;10096;51.112;6.776;2022-10-30T12:38:34;9.85;;;5.95;;
19867;SDS011;10096;51.112;6.776;2022-10-30T12:41:11;9.80;;;6.25;;
19867;SDS011;10096;51.112;6.776;2022-10-30T12:43:43;10.70;;;6.32;;
19867;SDS011;10096;51.112;6.776;2022-10-30T12:46:24;9.88;;;6.20;;
19867;SDS011;10096;51.112;6.776;2022-10-30T12:49:00;12.15;;;6.47;;
19867;SDS011;10096;51.112;6.776;2022-10-30T12:51:34;14.57;;;6.10;;
19867;SDS011;10096;51.112;6.776;2022-10-30T12:54:11;10.13;;;6.15;;
19867;SDS011;10096;51.112;6.776;2022-10-30T12:56:52;8.50;;;6.28;;
19867;SDS011;10096;51.112;6.776;2022-10-30T12:59:42;7.63;;;6.43;;
19867;SDS011;10096;51.112;6.776;2022-10-30T13:02:24;11.05;;;6.78;;
19867;SDS011;10096;51.112;6.776;2022-10-30T13:05:00;11.45;;;5.60;;
19867;SDS011;10096;51.112;6.776;2022-10-30T13:07:32;10.45;;;7.13;;
19867;SDS011;10096;51.112;6.776;2022-10-30T13:10:19;11.18;;;5.70;;
19867;SDS011;10096;51.112;6.776;2022-10-30T13:12:54;11.93;;;5.22;;
19867;SDS011;10096;51.112;6.776;2022-10-30T13:15:26;9.73;;;6.20;;
19867;SDS011;10096;51.112;6.776;2022-10-30T13:18:05;8.10;;;6.15;;
19867;SDS011;10096;51.112;6.776;2022-10-30T13:20:40;10.23;;;5.93;;
19867;SDS011;10096;51.112;6.776;2022-10-30T13:23:14;10.57;;;6.20;;
19867;SDS011;10096;51.112;6.776;2022-10-30T13:25:55;8.63;;;6.07;;
19867;SDS011;10096;51.112;6.776;2022-10-30T13:28:35;10.75;;;5.97;;
19867;SDS011;10096;51.112;6.776;2022-10-30T13:31:14;10.43;;;5.53;;
19867;SDS011;10096;51.112;6.776;2022-10-30T13:33:51;8.18;;;5.93;;
19867;SDS011;10096;51.112;6.776;2022-10-30T13:36:30;9.20;;;5.63;;
19867;SDS011;10096;51.112;6.776;2022-10-30T13:39:07;9.88;;;5.60;;
19867;SDS011;10096;51.112;6.776;2022-10-30T13:41:53;12.80;;;5.80;;
19867;SDS011;10096;51.112;6.776;2022-10-30T13:44:35;8.57;;;5.15;;
19867;SDS011;10096;51.112;6.776;2022-10-30T13:47:14;7.97;;;5.35;;
19867;SDS011;10096;51.112;6.776;2022-10-30T13:50:03;12.20;;;7.15;;
19867;SDS011;10096;51.112;6.776;2022-10-30T13:52:48;8.68;;;5.50;;
19867;SDS011;10096;51.112;6.776;2022-10-30T13:55:31;8.57;;;5.88;;
19867;SDS011;10096;51.112;6.776;2022-10-30T13:58:07;12.27;;;5.85;;
19867;SDS011;10096;51.112;6.776;2022-10-30T14:00:48;11.50;;;6.50;;
19867;SDS011;10096;51.112;6.776;2022-10-30T14:03:29;10.95;;;5.88;;
19867;SDS011;10096;51.112;6.776;2022-10-30T14:06:09;6.97;;;5.65;;
19867;SDS011;10096;51.112;6.776;2022-10-30T14:08:42;9.68;;;5.85;;
19867;SDS011;10096;51.112;6.776;2022-10-30T14:11:22;9.57;;;6.00;;
19867;SDS011;10096;51.112;6.776;2022-10-30T14:14:24;9.48;;;5.97;;
19867;SDS011;10096;51.112;6.776;2022-10-30T14:17:08;9.32;;;6.40;;
19867;SDS011;10096;51.112;6.776;2022-10-30T14:22:42;11.38;;;7.78;;
19867;SDS011;10096;51.112;6.776;2022-10-30T14:26:10;8.70;;;6.70;;
19867;SDS011;10096;51.112;6.776;2022-10-30T14:28:53;13.52;;;8.02;;
19867;SDS011;10096;51.112;6.776;2022-10-30T14:31:49;12.52;;;6.35;;
19867;SDS011;10096;51.112;6.776;2022-10-30T14:40:33;8.88;;;5.85;;
19867;SDS011;10096;51.112;6.776;2022-10-30T14:43:09;14.13;;;6.47;;
19867;SDS011;10096;51.112;6.776;2022-10-30T14:45:46;11.27;;;6.03;;
19867;SDS011;10096;51.112;6.776;2022-10-30T14:48:42;9.55;;;6.22;;
19867;SDS011;10096;51.112;6.776;2022-10-30T14:51:15;8.55;;;5.43;;
19867;SDS011;10096;51.112;6.776;2022-10-30T14:53:50;10.13;;;6.60;;
19867;SDS011;10096;51.112;6.776;2022-10-30T14:56:40;8.30;;;6.55;;
19867;SDS011;10096;51.112;6.776;2022-10-30T14:59:19;7.88;;;7.03;;
19867;SDS011;10096;51.112;6.776;2022-10-30T15:01:52;8.63;;;5.80;;
19867;SDS011;10096;51.112;6.776;2022-10-30T15:04:26;8.27;;;5.35;;
19867;SDS011;10096;51.112;6.776;2022-10-30T15:07:12;7.70;;;4.72;;
19867;SDS011;10096;51.112;6.776;2022-10-30T15:10:18;9.40;;;5.93;;
19867;SDS011;10096;51.112;6.776;2022-10-30T15:12:58;7.53;;;5.95;;
19867;SDS011;10096;51.112;6.776;2022-10-30T15:15:38;11.15;;;5.43;;
19867;SDS011;10096;51.112;6.776;2022-10-30T15:18:06;6.88;;;4.65;;
19867;SDS011;10096;51.112;6.776;2022-10-30T15:20:39;9.82;;;5.18;;
19867;SDS011;10096;51.112;6.776;2022-10-30T15:23:15;9.38;;;5.50;;
19867;SDS011;10096;51.112;6.776;2022-10-30T15:25:55;9.38;;;5.05;;
19867;SDS011;10096;51.112;6.776;2022-10-30T15:28:26;8.15;;;5.97;;
19867;SDS011;10096;51.112;6.776;2022-10-30T15:31:04;11.32;;;5.43;;